sensor_id;sensor_type;location;lat;lon;timestamp;pressure;altitude;pressure_sealevel;temperature;humidity
12471;BME280;36499;46.484;13.832;2023-05-21T00:00:21;93215.84;;;13.33;89.75
12471;BME280;36499;46.484;13.832;2023-05-21T00:02:48;93204.69;;;13.26;90.41
12471;BME280;36499;46.484;13.832;2023-05-21T00:05:16;93207.84;;;13.28;90.53
12471;BME280;36499;46.484;13.832;2023-05-21T00:07:43;93200.59;;;13.30;89.76
12471;BME280;36499;46.484;13.832;2023-05-21T00:10:12;93201.81;;;13.16;89.69
12471;BME280;36499;46.484;13.832;2023-05-21T00:12:39;93199.56;;;13.20;89.58
12471;BME280;36499;46.484;13.832;2023-05-21T00:15:07;93192.72;;;13.19;89.44
12471;BME280;36499;46.484;13.832;2023-05-21T00:17:36;93197.59;;;13.15;89.60
12471;BME280;36499;46.484;13.832;2023-05-21T00:20:06;93186.06;;;13.05;91.16
12471;BME280;36499;46.484;13.832;2023-05-21T00:22:35;93171.59;;;13.02;91.56
12471;BME280;36499;46.484;13.832;2023-05-21T00:25:02;93174.91;;;13.09;91.12
12471;BME280;36499;46.484;13.832;2023-05-21T00:27:29;93174.56;;;13.06;90.90
12471;BME280;36499;46.484;13.832;2023-05-21T00:29:56;93176.16;;;13.07;90.48
12471;BME280;36499;46.484;13.832;2023-05-21T00:32:24;93174.56;;;13.06;90.58
12471;BME280;36499;46.484;13.832;2023-05-21T00:34:53;93175.84;;;13.15;90.38
12471;BME280;36499;46.484;13.832;2023-05-21T00:37:21;93175.06;;;13.14;90.67
12471;BME280;36499;46.484;13.832;2023-05-21T00:39:49;93172.44;;;13.14;90.88
12471;BME280;36499;46.484;13.832;2023-05-21T00:42:16;93169.38;;;13.17;90.87
12471;BME280;36499;46.484;13.832;2023-05-21T00:44:43;93174.13;;;13.20;90.91
12471;BME280;36499;46.484;13.832;2023-05-21T00:47:12;93166.06;;;13.22;91.09
12471;BME280;36499;46.484;13.832;2023-05-21T00:49:43;93168.22;;;13.25;90.73
12471;BME280;36499;46.484;13.832;2023-05-21T00:52:11;93170.50;;;13.21;90.71
12471;BME280;36499;46.484;13.832;2023-05-21T00:54:38;93167.34;;;13.19;91.07
12471;BME280;36499;46.484;13.832;2023-05-21T00:57:06;93172.56;;;13.19;90.13
12471;BME280;36499;46.484;13.832;2023-05-21T00:59:33;93169.03;;;13.14;90.28
12471;BME280;36499;46.484;13.832;2023-05-21T01:02:01;93169.25;;;13.12;90.68
12471;BME280;36499;46.484;13.832;2023-05-21T01:04:30;93164.25;;;13.11;90.62
12471;BME280;36499;46.484;13.832;2023-05-21T01:06:57;93162.84;;;13.08;90.79
12471;BME280;36499;46.484;13.832;2023-05-21T01:09:27;93172.72;;;13.06;91.19
12471;BME280;36499;46.484;13.832;2023-05-21T01:11:55;93167.50;;;13.06;91.50
12471;BME280;36499;46.484;13.832;2023-05-21T01:14:23;93171.28;;;13.10;91.37
12471;BME280;36499;46.484;13.832;2023-05-21T01:16:52;93170.28;;;13.11;91.37
12471;BME280;36499;46.484;13.832;2023-05-21T01:19:21;93169.47;;;13.11;91.62
12471;BME280;36499;46.484;13.832;2023-05-21T01:21:51;93158.09;;;13.17;90.68
12471;BME280;36499;46.484;13.832;2023-05-21T01:24:22;93153.31;;;13.14;90.47
12471;BME280;36499;46.484;13.832;2023-05-21T01:26:49;93159.09;;;13.04;91.13
12471;BME280;36499;46.484;13.832;2023-05-21T01:29:17;93159.09;;;13.04;91.35
12471;BME280;36499;46.484;13.832;2023-05-21T01:32:13;93157.03;;;13.06;91.58
12471;BME280;36499;46.484;13.832;2023-05-21T01:34:49;93149.28;;;12.99;92.18
12471;BME280;36499;46.484;13.832;2023-05-21T01:37:23;93152.56;;;12.95;92.96
12471;BME280;36499;46.484;13.832;2023-05-21T01:40:01;93154.06;;;13.03;92.86
12471;BME280;36499;46.484;13.832;2023-05-21T01:42:32;93144.53;;;13.08;92.63
12471;BME280;36499;46.484;13.832;2023-05-21T01:45:02;93138.88;;;13.11;92.27
12471;BME280;36499;46.484;13.832;2023-05-21T01:47:34;93147.53;;;13.12;91.81
12471;BME280;36499;46.484;13.832;2023-05-21T01:50:04;93147.94;;;13.09;91.64
12471;BME280;36499;46.484;13.832;2023-05-21T01:52:31;93145.75;;;13.06;91.82
12471;BME280;36499;46.484;13.832;2023-05-21T01:54:59;93146.56;;;13.06;92.00
12471;BME280;36499;46.484;13.832;2023-05-21T01:57:26;93142.13;;;13.07;92.40
12471;BME280;36499;46.484;13.832;2023-05-21T01:59:54;93137.41;;;13.15;90.85
12471;BME280;36499;46.484;13.832;2023-05-21T02:02:23;93139.72;;;13.05;91.11
12471;BME280;36499;46.484;13.832;2023-05-21T02:04:50;93137.91;;;13.06;91.26
12471;BME280;36499;46.484;13.832;2023-05-21T02:07:17;93130.16;;;12.99;91.49
12471;BME280;36499;46.484;13.832;2023-05-21T02:09:44;93137.56;;;13.02;90.15
12471;BME280;36499;46.484;13.832;2023-05-21T02:12:13;93125.06;;;12.92;90.06
12471;BME280;36499;46.484;13.832;2023-05-21T02:14:40;93132.75;;;12.87;90.12
12471;BME280;36499;46.484;13.832;2023-05-21T02:17:07;93124.56;;;12.84;90.54
12471;BME280;36499;46.484;13.832;2023-05-21T02:19:34;93132.88;;;12.81;90.55
12471;BME280;36499;46.484;13.832;2023-05-21T02:22:01;93131.38;;;12.73;90.05
12471;BME280;36499;46.484;13.832;2023-05-21T02:24:28;93126.69;;;12.64;90.18
12471;BME280;36499;46.484;13.832;2023-05-21T02:26:56;93122.34;;;12.58;89.72
12471;BME280;36499;46.484;13.832;2023-05-21T02:29:24;93131.53;;;12.48;90.06
12471;BME280;36499;46.484;13.832;2023-05-21T02:31:51;93141.28;;;12.41;90.87
12471;BME280;36499;46.484;13.832;2023-05-21T02:34:18;93142.28;;;12.40;91.01
12471;BME280;36499;46.484;13.832;2023-05-21T02:36:46;93133.88;;;12.38;91.22
12471;BME280;36499;46.484;13.832;2023-05-21T02:39:17;93132.75;;;12.34;91.28
12471;BME280;36499;46.484;13.832;2023-05-21T02:41:45;93129.88;;;12.24;91.67
12471;BME280;36499;46.484;13.832;2023-05-21T02:44:12;93134.66;;;12.27;88.65
12471;BME280;36499;46.484;13.832;2023-05-21T02:46:41;93130.88;;;12.23;89.89
12471;BME280;36499;46.484;13.832;2023-05-21T02:49:08;93122.09;;;12.18;90.59
12471;BME280;36499;46.484;13.832;2023-05-21T02:51:35;93129.00;;;12.12;91.62
12471;BME280;36499;46.484;13.832;2023-05-21T02:54:03;93125.25;;;12.08;92.00
12471;BME280;36499;46.484;13.832;2023-05-21T02:56:30;93121.03;;;12.07;92.15
12471;BME280;36499;46.484;13.832;2023-05-21T02:58:57;93123.06;;;12.05;92.14
12471;BME280;36499;46.484;13.832;2023-05-21T03:01:24;93122.13;;;11.99;91.70
12471;BME280;36499;46.484;13.832;2023-05-21T03:03:52;93122.94;;;12.00;92.28
12471;BME280;36499;46.484;13.832;2023-05-21T03:06:19;93135.19;;;11.99;92.68
12471;BME280;36499;46.484;13.832;2023-05-21T03:08:47;93130.41;;;11.96;92.66
12471;BME280;36499;46.484;13.832;2023-05-21T03:11:14;93132.31;;;11.89;93.17
12471;BME280;36499;46.484;13.832;2023-05-21T03:13:41;93127.53;;;11.86;93.46
12471;BME280;36499;46.484;13.832;2023-05-21T03:16:08;93129.78;;;11.83;93.42
12471;BME280;36499;46.484;13.832;2023-05-21T03:18:35;93129.44;;;11.79;92.53
12471;BME280;36499;46.484;13.832;2023-05-21T03:21:04;93127.91;;;11.72;92.48
12471;BME280;36499;46.484;13.832;2023-05-21T03:23:31;93131.28;;;11.72;93.27
12471;BME280;36499;46.484;13.832;2023-05-21T03:25:59;93129.28;;;11.74;93.78
12471;BME280;36499;46.484;13.832;2023-05-21T03:28:27;93129.84;;;11.76;93.60
12471;BME280;36499;46.484;13.832;2023-05-21T03:30:54;93130.06;;;11.75;92.70
12471;BME280;36499;46.484;13.832;2023-05-21T03:33:21;93123.88;;;11.69;95.33
12471;BME280;36499;46.484;13.832;2023-05-21T03:35:48;93120.63;;;11.74;96.06
12471;BME280;36499;46.484;13.832;2023-05-21T03:38:17;93119.75;;;11.80;96.58
12471;BME280;36499;46.484;13.832;2023-05-21T03:40:44;93130.63;;;11.77;93.45
12471;BME280;36499;46.484;13.832;2023-05-21T03:43:11;93134.22;;;11.82;93.72
12471;BME280;36499;46.484;13.832;2023-05-21T03:45:38;93124.13;;;11.86;93.91
12471;BME280;36499;46.484;13.832;2023-05-21T03:48:05;93124.47;;;11.89;94.22
12471;BME280;36499;46.484;13.832;2023-05-21T03:50:32;93129.59;;;11.96;94.52
12471;BME280;36499;46.484;13.832;2023-05-21T03:52:59;93134.03;;;11.95;94.10
12471;BME280;36499;46.484;13.832;2023-05-21T03:55:28;93134.38;;;11.99;94.40
12471;BME280;36499;46.484;13.832;2023-05-21T03:57:55;93137.16;;;12.04;93.94
12471;BME280;36499;46.484;13.832;2023-05-21T04:00:22;93130.69;;;12.07;94.67
12471;BME280;36499;46.484;13.832;2023-05-21T04:02:49;93130.47;;;12.08;95.53
12471;BME280;36499;46.484;13.832;2023-05-21T04:05:16;93141.81;;;12.02;94.27
12471;BME280;36499;46.484;13.832;2023-05-21T04:07:43;93136.88;;;11.94;94.49
12471;BME280;36499;46.484;13.832;2023-05-21T04:10:11;93130.63;;;11.95;94.37
12471;BME280;36499;46.484;13.832;2023-05-21T04:12:39;93139.19;;;12.02;93.93
12471;BME280;36499;46.484;13.832;2023-05-21T04:15:07;93138.59;;;12.00;94.50
12471;BME280;36499;46.484;13.832;2023-05-21T04:17:34;93143.91;;;12.12;95.16
12471;BME280;36499;46.484;13.832;2023-05-21T04:20:02;93148.66;;;12.15;95.29
12471;BME280;36499;46.484;13.832;2023-05-21T04:22:29;93141.19;;;12.18;95.78
12471;BME280;36499;46.484;13.832;2023-05-21T04:24:56;93142.69;;;12.26;95.46
12471;BME280;36499;46.484;13.832;2023-05-21T04:27:24;93147.72;;;12.27;95.23
12471;BME280;36499;46.484;13.832;2023-05-21T04:29:52;93143.50;;;12.26;94.53
12471;BME280;36499;46.484;13.832;2023-05-21T04:32:20;93148.16;;;12.24;93.92
12471;BME280;36499;46.484;13.832;2023-05-21T04:34:47;93157.81;;;12.24;93.80
12471;BME280;36499;46.484;13.832;2023-05-21T04:37:14;93158.63;;;12.24;94.58
12471;BME280;36499;46.484;13.832;2023-05-21T04:39:43;93159.78;;;12.28;94.81
12471;BME280;36499;46.484;13.832;2023-05-21T04:42:10;93161.84;;;12.38;94.93
12471;BME280;36499;46.484;13.832;2023-05-21T04:44:37;93164.97;;;12.46;94.81
12471;BME280;36499;46.484;13.832;2023-05-21T04:47:06;93160.09;;;12.50;95.29
12471;BME280;36499;46.484;13.832;2023-05-21T04:49:33;93159.97;;;12.57;95.10
12471;BME280;36499;46.484;13.832;2023-05-21T04:52:00;93159.31;;;12.61;93.79
12471;BME280;36499;46.484;13.832;2023-05-21T04:54:29;93161.63;;;12.69;93.67
12471;BME280;36499;46.484;13.832;2023-05-21T04:56:56;93149.09;;;12.71;94.20
12471;BME280;36499;46.484;13.832;2023-05-21T04:59:23;93148.22;;;12.77;94.53
12471;BME280;36499;46.484;13.832;2023-05-21T05:01:50;93150.19;;;12.82;94.47
12471;BME280;36499;46.484;13.832;2023-05-21T05:04:18;93152.69;;;12.88;94.59
12471;BME280;36499;46.484;13.832;2023-05-21T05:06:45;93151.31;;;12.97;94.76
12471;BME280;36499;46.484;13.832;2023-05-21T05:09:13;93148.38;;;13.06;95.46
12471;BME280;36499;46.484;13.832;2023-05-21T05:11:40;93143.31;;;13.11;95.51
12471;BME280;36499;46.484;13.832;2023-05-21T05:14:07;93139.91;;;13.22;95.42
12471;BME280;36499;46.484;13.832;2023-05-21T05:16:34;93147.53;;;13.35;95.21
12471;BME280;36499;46.484;13.832;2023-05-21T05:19:01;93136.34;;;13.39;94.79
12471;BME280;36499;46.484;13.832;2023-05-21T05:21:30;93145.69;;;13.47;94.76
12471;BME280;36499;46.484;13.832;2023-05-21T05:23:57;93139.09;;;13.56;94.56
12471;BME280;36499;46.484;13.832;2023-05-21T05:26:24;93146.41;;;13.66;93.98
12471;BME280;36499;46.484;13.832;2023-05-21T05:28:51;93150.59;;;13.67;93.61
12471;BME280;36499;46.484;13.832;2023-05-21T05:31:18;93143.72;;;13.77;93.17
12471;BME280;36499;46.484;13.832;2023-05-21T05:33:46;93142.25;;;13.70;92.71
12471;BME280;36499;46.484;13.832;2023-05-21T05:36:14;93146.59;;;13.76;92.50
12471;BME280;36499;46.484;13.832;2023-05-21T05:38:42;93141.91;;;13.78;92.75
12471;BME280;36499;46.484;13.832;2023-05-21T05:41:09;93145.91;;;13.80;92.28
12471;BME280;36499;46.484;13.832;2023-05-21T05:43:36;93145.56;;;13.88;91.95
12471;BME280;36499;46.484;13.832;2023-05-21T05:46:03;93139.38;;;13.94;91.82
12471;BME280;36499;46.484;13.832;2023-05-21T05:48:30;93141.41;;;14.04;91.72
12471;BME280;36499;46.484;13.832;2023-05-21T05:50:57;93150.66;;;14.07;90.91
12471;BME280;36499;46.484;13.832;2023-05-21T05:53:24;93147.88;;;14.13;90.57
12471;BME280;36499;46.484;13.832;2023-05-21T05:55:53;93153.31;;;14.23;90.57
12471;BME280;36499;46.484;13.832;2023-05-21T05:58:20;93147.38;;;14.28;89.84
12471;BME280;36499;46.484;13.832;2023-05-21T06:00:47;93139.69;;;14.50;89.90
12471;BME280;36499;46.484;13.832;2023-05-21T06:03:14;93141.16;;;14.74;89.70
12471;BME280;36499;46.484;13.832;2023-05-21T06:05:42;93137.31;;;15.10;90.20
12471;BME280;36499;46.484;13.832;2023-05-21T06:08:09;93131.47;;;15.41;87.34
12471;BME280;36499;46.484;13.832;2023-05-21T06:10:37;93129.50;;;15.48;83.81
12471;BME280;36499;46.484;13.832;2023-05-21T06:13:05;93131.59;;;15.63;83.48
12471;BME280;36499;46.484;13.832;2023-05-21T06:15:33;93128.78;;;15.53;84.59
12471;BME280;36499;46.484;13.832;2023-05-21T06:18:00;93130.66;;;15.52;83.77
12471;BME280;36499;46.484;13.832;2023-05-21T06:20:27;93127.22;;;15.52;83.38
12471;BME280;36499;46.484;13.832;2023-05-21T06:22:54;93130.28;;;15.49;84.13
12471;BME280;36499;46.484;13.832;2023-05-21T06:25:21;93128.09;;;15.41;84.10
12471;BME280;36499;46.484;13.832;2023-05-21T06:27:50;93126.00;;;15.43;84.08
12471;BME280;36499;46.484;13.832;2023-05-21T06:30:18;93129.59;;;15.53;84.61
12471;BME280;36499;46.484;13.832;2023-05-21T06:32:46;93130.59;;;15.69;83.99
12471;BME280;36499;46.484;13.832;2023-05-21T06:35:13;93129.50;;;15.65;83.31
12471;BME280;36499;46.484;13.832;2023-05-21T06:37:40;93124.72;;;15.62;82.97
12471;BME280;36499;46.484;13.832;2023-05-21T06:40:08;93121.69;;;15.70;81.86
12471;BME280;36499;46.484;13.832;2023-05-21T06:42:35;93126.34;;;15.84;81.86
12471;BME280;36499;46.484;13.832;2023-05-21T06:45:03;93132.59;;;16.00;81.71
12471;BME280;36499;46.484;13.832;2023-05-21T06:47:32;93125.69;;;16.16;81.67
12471;BME280;36499;46.484;13.832;2023-05-21T06:49:59;93123.78;;;16.33;80.41
12471;BME280;36499;46.484;13.832;2023-05-21T06:52:26;93124.44;;;16.45;80.46
12471;BME280;36499;46.484;13.832;2023-05-21T06:54:53;93122.91;;;16.49;79.13
12471;BME280;36499;46.484;13.832;2023-05-21T06:57:20;93123.53;;;16.56;77.75
12471;BME280;36499;46.484;13.832;2023-05-21T06:59:47;93108.53;;;16.57;76.68
12471;BME280;36499;46.484;13.832;2023-05-21T07:02:14;93111.06;;;16.73;77.48
12471;BME280;36499;46.484;13.832;2023-05-21T07:04:43;93108.88;;;16.92;75.64
12471;BME280;36499;46.484;13.832;2023-05-21T07:07:10;93112.34;;;17.30;76.06
12471;BME280;36499;46.484;13.832;2023-05-21T07:09:37;93104.66;;;17.60;74.58
12471;BME280;36499;46.484;13.832;2023-05-21T07:12:05;93109.47;;;17.73;71.74
12471;BME280;36499;46.484;13.832;2023-05-21T07:14:32;93095.00;;;17.81;72.30
12471;BME280;36499;46.484;13.832;2023-05-21T07:16:59;93098.78;;;18.00;70.44
12471;BME280;36499;46.484;13.832;2023-05-21T07:19:27;93084.63;;;18.11;70.81
12471;BME280;36499;46.484;13.832;2023-05-21T07:21:56;93091.25;;;18.29;70.54
12471;BME280;36499;46.484;13.832;2023-05-21T07:24:23;93086.03;;;18.44;68.11
12471;BME280;36499;46.484;13.832;2023-05-21T07:26:52;93091.66;;;18.62;66.77
12471;BME280;36499;46.484;13.832;2023-05-21T07:29:19;93086.13;;;18.64;64.95
12471;BME280;36499;46.484;13.832;2023-05-21T07:31:46;93072.13;;;18.84;64.65
12471;BME280;36499;46.484;13.832;2023-05-21T07:34:14;93074.50;;;18.85;63.39
12471;BME280;36499;46.484;13.832;2023-05-21T07:36:41;93074.00;;;18.98;63.94
12471;BME280;36499;46.484;13.832;2023-05-21T07:39:10;93071.09;;;19.20;63.35
12471;BME280;36499;46.484;13.832;2023-05-21T07:41:37;93076.63;;;19.54;63.55
12471;BME280;36499;46.484;13.832;2023-05-21T07:44:04;93068.63;;;19.84;64.05
12471;BME280;36499;46.484;13.832;2023-05-21T07:46:31;93074.16;;;19.93;60.47
12471;BME280;36499;46.484;13.832;2023-05-21T07:48:58;93077.06;;;19.91;60.82
12471;BME280;36499;46.484;13.832;2023-05-21T07:51:26;93077.91;;;19.82;59.59
12471;BME280;36499;46.484;13.832;2023-05-21T07:53:53;93075.50;;;19.80;58.67
12471;BME280;36499;46.484;13.832;2023-05-21T07:56:22;93073.94;;;19.69;59.10
12471;BME280;36499;46.484;13.832;2023-05-21T07:58:49;93070.25;;;19.70;60.61
12471;BME280;36499;46.484;13.832;2023-05-21T08:01:16;93069.97;;;19.72;62.14
12471;BME280;36499;46.484;13.832;2023-05-21T08:03:43;93072.34;;;19.68;60.94
12471;BME280;36499;46.484;13.832;2023-05-21T08:06:10;93064.75;;;19.51;60.73
12471;BME280;36499;46.484;13.832;2023-05-21T08:08:37;93060.75;;;19.39;60.21
12471;BME280;36499;46.484;13.832;2023-05-21T08:11:04;93064.19;;;19.34;60.81
12471;BME280;36499;46.484;13.832;2023-05-21T08:13:33;93067.91;;;19.53;60.91
12471;BME280;36499;46.484;13.832;2023-05-21T08:16:00;93060.50;;;19.55;59.52
12471;BME280;36499;46.484;13.832;2023-05-21T08:18:27;93057.28;;;19.63;59.64
12471;BME280;36499;46.484;13.832;2023-05-21T08:20:54;93058.38;;;19.62;59.01
12471;BME280;36499;46.484;13.832;2023-05-21T08:23:21;93061.78;;;19.78;61.35
12471;BME280;36499;46.484;13.832;2023-05-21T08:25:48;93056.88;;;20.05;59.63
12471;BME280;36499;46.484;13.832;2023-05-21T08:28:15;93062.59;;;20.38;57.40
12471;BME280;36499;46.484;13.832;2023-05-21T08:30:44;93062.41;;;20.73;59.41
12471;BME280;36499;46.484;13.832;2023-05-21T08:33:11;93052.56;;;21.18;57.25
12471;BME280;36499;46.484;13.832;2023-05-21T08:35:38;93046.84;;;21.63;56.45
12471;BME280;36499;46.484;13.832;2023-05-21T08:38:05;93041.50;;;21.92;54.90
12471;BME280;36499;46.484;13.832;2023-05-21T08:40:33;93047.13;;;22.33;53.79
12471;BME280;36499;46.484;13.832;2023-05-21T08:43:01;93040.63;;;22.63;52.58
12471;BME280;36499;46.484;13.832;2023-05-21T08:45:34;93048.03;;;22.84;52.82
12471;BME280;36499;46.484;13.832;2023-05-21T08:48:04;93044.88;;;23.01;51.69
12471;BME280;36499;46.484;13.832;2023-05-21T08:50:32;93040.66;;;23.14;50.28
12471;BME280;36499;46.484;13.832;2023-05-21T08:52:59;93034.44;;;23.37;48.86
12471;BME280;36499;46.484;13.832;2023-05-21T08:55:27;93035.97;;;23.43;48.89
12471;BME280;36499;46.484;13.832;2023-05-21T08:57:54;93036.84;;;23.52;46.59
12471;BME280;36499;46.484;13.832;2023-05-21T09:00:21;93040.56;;;23.70;47.20
12471;BME280;36499;46.484;13.832;2023-05-21T09:02:50;93039.66;;;23.74;46.14
12471;BME280;36499;46.484;13.832;2023-05-21T09:05:21;93037.19;;;24.05;48.92
12471;BME280;36499;46.484;13.832;2023-05-21T09:07:58;93036.50;;;24.13;48.08
12471;BME280;36499;46.484;13.832;2023-05-21T09:10:35;93040.56;;;24.11;46.57
12471;BME280;36499;46.484;13.832;2023-05-21T09:13:04;93048.00;;;24.14;47.79
12471;BME280;36499;46.484;13.832;2023-05-21T09:15:32;93045.38;;;24.09;47.59
12471;BME280;36499;46.484;13.832;2023-05-21T09:18:00;93041.84;;;24.00;46.82
12471;BME280;36499;46.484;13.832;2023-05-21T09:20:28;93049.16;;;24.08;46.19
12471;BME280;36499;46.484;13.832;2023-05-21T09:22:55;93052.03;;;24.11;46.25
12471;BME280;36499;46.484;13.832;2023-05-21T09:25:25;93053.22;;;24.19;45.40
12471;BME280;36499;46.484;13.832;2023-05-21T09:27:54;93041.38;;;24.39;45.92
12471;BME280;36499;46.484;13.832;2023-05-21T09:30:22;93036.88;;;24.61;43.69
12471;BME280;36499;46.484;13.832;2023-05-21T09:32:56;93041.56;;;24.78;46.39
12471;BME280;36499;46.484;13.832;2023-05-21T09:35:23;93039.25;;;24.63;43.10
12471;BME280;36499;46.484;13.832;2023-05-21T09:37:52;93035.00;;;24.62;44.33
12471;BME280;36499;46.484;13.832;2023-05-21T09:40:22;93033.34;;;24.52;44.87
12471;BME280;36499;46.484;13.832;2023-05-21T09:42:50;93035.91;;;24.57;45.30
12471;BME280;36499;46.484;13.832;2023-05-21T09:45:18;93042.69;;;24.63;43.90
12471;BME280;36499;46.484;13.832;2023-05-21T09:47:47;93032.88;;;24.86;45.58
12471;BME280;36499;46.484;13.832;2023-05-21T09:50:18;93027.94;;;25.15;42.85
12471;BME280;36499;46.484;13.832;2023-05-21T09:52:46;93025.56;;;25.36;42.73
12471;BME280;36499;46.484;13.832;2023-05-21T09:55:16;93023.97;;;25.35;42.74
12471;BME280;36499;46.484;13.832;2023-05-21T09:57:45;93030.81;;;25.50;45.32
12471;BME280;36499;46.484;13.832;2023-05-21T10:00:21;93020.72;;;25.60;43.93
12471;BME280;36499;46.484;13.832;2023-05-21T10:02:49;93020.03;;;25.86;44.53
12471;BME280;36499;46.484;13.832;2023-05-21T10:05:20;93015.16;;;25.88;43.97
12471;BME280;36499;46.484;13.832;2023-05-21T10:07:51;93022.03;;;25.80;41.34
12471;BME280;36499;46.484;13.832;2023-05-21T10:10:21;93023.84;;;25.62;42.25
12471;BME280;36499;46.484;13.832;2023-05-21T10:13:03;93019.75;;;25.56;42.57
12471;BME280;36499;46.484;13.832;2023-05-21T10:15:39;93012.91;;;25.72;41.82
12471;BME280;36499;46.484;13.832;2023-05-21T10:18:09;93015.38;;;25.60;40.87
12471;BME280;36499;46.484;13.832;2023-05-21T10:20:37;93017.28;;;25.68;39.75
12471;BME280;36499;46.484;13.832;2023-05-21T10:23:05;93013.00;;;25.59;43.51
12471;BME280;36499;46.484;13.832;2023-05-21T10:25:35;93013.06;;;25.67;41.02
12471;BME280;36499;46.484;13.832;2023-05-21T10:28:03;93002.97;;;25.64;41.63
12471;BME280;36499;46.484;13.832;2023-05-21T10:30:35;93009.28;;;25.46;43.20
12471;BME280;36499;46.484;13.832;2023-05-21T10:33:03;93008.94;;;25.39;43.57
12471;BME280;36499;46.484;13.832;2023-05-21T10:35:33;93015.16;;;25.57;42.87
12471;BME280;36499;46.484;13.832;2023-05-21T10:38:03;93019.06;;;25.82;44.18
12471;BME280;36499;46.484;13.832;2023-05-21T10:40:30;93009.88;;;25.96;44.49
12471;BME280;36499;46.484;13.832;2023-05-21T10:43:36;93000.25;;;26.35;41.52
12471;BME280;36499;46.484;13.832;2023-05-21T10:46:25;93004.19;;;26.37;39.79
12471;BME280;36499;46.484;13.832;2023-05-21T10:49:15;93010.84;;;26.09;40.28
12471;BME280;36499;46.484;13.832;2023-05-21T10:51:58;93011.25;;;26.33;41.29
12471;BME280;36499;46.484;13.832;2023-05-21T10:55:06;93001.03;;;25.87;40.08
12471;BME280;36499;46.484;13.832;2023-05-21T11:00:41;93007.91;;;26.19;40.94
12471;BME280;36499;46.484;13.832;2023-05-21T11:03:11;93003.00;;;26.12;38.09
12471;BME280;36499;46.484;13.832;2023-05-21T11:05:40;93001.81;;;25.88;39.17
12471;BME280;36499;46.484;13.832;2023-05-21T11:08:24;92995.78;;;25.73;39.89
12471;BME280;36499;46.484;13.832;2023-05-21T11:10:53;92989.53;;;25.78;37.56
12471;BME280;36499;46.484;13.832;2023-05-21T11:13:23;92992.22;;;25.87;40.84
12471;BME280;36499;46.484;13.832;2023-05-21T11:16:13;92994.31;;;25.59;37.61
12471;BME280;36499;46.484;13.832;2023-05-21T11:18:58;92985.13;;;25.82;37.59
12471;BME280;36499;46.484;13.832;2023-05-21T11:21:29;92992.81;;;25.84;39.64
12471;BME280;36499;46.484;13.832;2023-05-21T11:24:00;92984.72;;;25.58;36.51
12471;BME280;36499;46.484;13.832;2023-05-21T11:26:58;92986.53;;;25.79;37.04
12471;BME280;36499;46.484;13.832;2023-05-21T11:29:46;92993.72;;;25.70;38.62
12471;BME280;36499;46.484;13.832;2023-05-21T11:32:15;92991.75;;;25.54;37.52
12471;BME280;36499;46.484;13.832;2023-05-21T11:34:46;92990.03;;;25.89;38.46
12471;BME280;36499;46.484;13.832;2023-05-21T11:37:26;92986.81;;;25.69;38.97
12471;BME280;36499;46.484;13.832;2023-05-21T11:39:57;92987.94;;;25.77;38.46
12471;BME280;36499;46.484;13.832;2023-05-21T11:42:32;92989.84;;;25.85;39.81
12471;BME280;36499;46.484;13.832;2023-05-21T11:45:01;92995.38;;;25.89;40.76
12471;BME280;36499;46.484;13.832;2023-05-21T11:47:31;92986.72;;;25.83;38.98
12471;BME280;36499;46.484;13.832;2023-05-21T11:50:00;93001.72;;;26.01;41.32
12471;BME280;36499;46.484;13.832;2023-05-21T11:52:28;92993.03;;;25.87;39.47
12471;BME280;36499;46.484;13.832;2023-05-21T11:54:56;93002.75;;;25.83;39.50
12471;BME280;36499;46.484;13.832;2023-05-21T11:57:27;93003.09;;;25.59;39.70
12471;BME280;36499;46.484;13.832;2023-05-21T11:59:57;93014.16;;;25.44;39.79
12471;BME280;36499;46.484;13.832;2023-05-21T12:02:29;93004.09;;;25.19;39.57
12471;BME280;36499;46.484;13.832;2023-05-21T12:04:58;93006.41;;;25.56;40.49
12471;BME280;36499;46.484;13.832;2023-05-21T12:07:27;93020.09;;;25.41;39.16
12471;BME280;36499;46.484;13.832;2023-05-21T12:09:56;92998.38;;;25.56;39.41
12471;BME280;36499;46.484;13.832;2023-05-21T12:12:25;93002.38;;;25.67;38.65
12471;BME280;36499;46.484;13.832;2023-05-21T12:14:54;92997.84;;;25.76;37.94
12471;BME280;36499;46.484;13.832;2023-05-21T12:17:22;92990.59;;;25.77;37.77
12471;BME280;36499;46.484;13.832;2023-05-21T12:19:52;93002.25;;;25.81;37.21
12471;BME280;36499;46.484;13.832;2023-05-21T12:22:22;92988.72;;;25.77;36.11
12471;BME280;36499;46.484;13.832;2023-05-21T12:24:50;92994.00;;;26.00;36.57
12471;BME280;36499;46.484;13.832;2023-05-21T12:27:20;93008.31;;;26.04;35.56
12471;BME280;36499;46.484;13.832;2023-05-21T12:29:49;92998.25;;;26.01;34.50
12471;BME280;36499;46.484;13.832;2023-05-21T12:32:20;92994.94;;;26.43;34.88
12471;BME280;36499;46.484;13.832;2023-05-21T12:34:48;92995.53;;;26.32;36.18
12471;BME280;36499;46.484;13.832;2023-05-21T12:37:20;93001.25;;;25.68;35.65
12471;BME280;36499;46.484;13.832;2023-05-21T12:39:50;93007.53;;;25.42;36.78
12471;BME280;36499;46.484;13.832;2023-05-21T12:42:24;93001.06;;;25.12;36.56
12471;BME280;36499;46.484;13.832;2023-05-21T12:44:53;93003.56;;;25.08;39.39
12471;BME280;36499;46.484;13.832;2023-05-21T12:47:23;93007.97;;;24.77;38.49
12471;BME280;36499;46.484;13.832;2023-05-21T12:49:55;93011.16;;;24.29;38.16
12471;BME280;36499;46.484;13.832;2023-05-21T12:52:24;93007.31;;;24.08;38.10
12471;BME280;36499;46.484;13.832;2023-05-21T12:54:53;93004.75;;;23.89;38.33
12471;BME280;36499;46.484;13.832;2023-05-21T12:57:23;93004.34;;;23.69;39.77
12471;BME280;36499;46.484;13.832;2023-05-21T12:59:52;93015.56;;;23.52;38.69
12471;BME280;36499;46.484;13.832;2023-05-21T13:02:23;93008.59;;;23.24;40.24